Time;durP1;ratioP1;P1;durP2;ratioP2;P2;SDS_P1;SDS_P2;PMS_P1;PMS_P2;Temp;Humidity;BMP_temperature;BMP_pressure;BME280_temperature;BME280_humidity;BME280_pressure;Samples;Min_cycle;Max_cycle;Signal;HPM_P1;HPM_P2
2024/01/17 00:00:03;;;;;;;;;;;;;;;;;;5063328;28;20390;-67
2024/01/17 00:02:30;;;;;;;;;;;;;;;;;;5070498;28;19925;-67
2024/01/17 00:04:57;;;;;;;;;;;;;;;;;;5063620;28;19925;-67
2024/01/17 00:07:24;;;;;;;;;;;;;;;;;;5061197;28;19925;-67
2024/01/17 00:09:51;;;;;;;;;;;;;;;;;;5072006;28;20444;-67
2024/01/17 00:12:19;;;;;;;;;;;;;;;;;;5071624;28;19947;-67
2024/01/17 00:14:46;;;;;;;;;;;;;;;;;;5071641;28;19979;-67
2024/01/17 00:17:14;;;;;;;;;;;;;;;;;;5055769;28;19932;-67
2024/01/17 00:19:41;;;;;;;;;;;;;;;;;;5055696;28;19939;-67
2024/01/17 00:22:08;;;;;;;;;;;;;;;;;;5065432;28;20252;-67
2024/01/17 00:24:35;;;;;;;;;;;;;;;;;;5072030;28;19981;-67
2024/01/17 00:27:03;;;;;;;;;;;;;;;;;;5070106;28;19971;-67
2024/01/17 00:29:30;;;;;;;;;;;;;;;;;;5052685;28;19983;-67
2024/01/17 00:31:57;;;;;;;;;;;;;;;;;;5066066;28;19928;-68
2024/01/17 00:34:24;;;;;;;;;;;;;;;;;;5070970;28;19931;-68
2024/01/17 00:36:51;;;;;;;;;;;;;;;;;;5063150;28;20550;-68
2024/01/17 00:39:18;;;;;;;;;;;;;;;;;;5071268;28;19924;-67
2024/01/17 00:41:46;;;;;;;;;;;;;;;;;;5067379;28;19924;-68
2024/01/17 00:44:16;;;;;;;;;;;;;;;;;;5071062;28;19929;-67
2024/01/17 00:46:43;;;;;;;;;;;;;;;;;;5067071;28;20445;-67
2024/01/17 00:49:11;;;;;;;;;;;;;;;;;;5051751;28;20360;-67
2024/01/17 00:51:38;;;;;;;;;;;;;;;;;;5066156;28;19929;-67
2024/01/17 00:54:05;;;;;;;;;;;;;;;;;;5052164;28;20477;-69
2024/01/17 00:56:32;;;;;;;;;;;;;;;;;;5065593;28;19925;-67
2024/01/17 00:58:59;;;;;;;;;;;;;;;;;;5053045;28;19925;-68
2024/01/17 01:01:26;;;;;;;;;;;;;;;;;;5068584;28;19994;-67
2024/01/17 01:03:53;;;;;;;;;;;;;;;;;;5051182;28;20029;-68
2024/01/17 01:06:20;;;;;;;;;;;;;;;;;;5054013;28;19932;-68
2024/01/17 01:08:47;;;;;;;;;;;;;;;;;;5067537;28;19928;-67
2024/01/17 01:11:14;;;;;;;;;;;;;;;;;;5068425;28;19979;-67
2024/01/17 01:13:41;;;;;;;;;;;;;;;;;;5071763;28;20369;-68
2024/01/17 01:16:10;;;;;;;;;;;;;;;;;;5071408;28;19989;-67
2024/01/17 01:18:37;;;;;;;;;;;;;;;;;;5064460;28;20399;-67
2024/01/17 01:21:04;;;;;;;;;;;;;;;;;;5060374;28;19924;-67
2024/01/17 01:23:31;;;;;;;;;;;;;;;;;;5060497;28;19982;-67
2024/01/17 01:25:58;;;;;;;;;;;;;;;;;;5062048;28;19971;-68
2024/01/17 01:28:25;;;;;;;;;;;;;;;;;;5054150;28;20373;-68
2024/01/17 01:30:52;;;;;;;;;;;;;;;;;;5057326;28;19960;-67
2024/01/17 01:33:19;;;;;;;;;;;;;;;;;;5071118;28;19978;-68
2024/01/17 01:35:46;;;;;;;;;;;;;;;;;;5073883;28;19924;-67
2024/01/17 01:38:13;;;;;;;;;;;;;;;;;;5072560;28;20399;-68
2024/01/17 01:40:40;;;;;;;;;;;;;;;;;;5060770;28;19994;-68
2024/01/17 01:43:07;;;;;;;;;;;;;;;;;;5067922;28;19931;-67
2024/01/17 01:45:34;;;;;;;;;;;;;;;;;;5060070;28;20439;-68
2024/01/17 01:48:02;;;;;;;;;;;;;;;;;;5071693;28;20456;-67
2024/01/17 01:50:29;;;;;;;;;;;;;;;;;;5070283;28;20073;-68
2024/01/17 01:52:56;;;;;;;;;;;;;;;;;;5070962;28;19924;-67
2024/01/17 01:55:24;;;;;;;;;;;;;;;;;;5074183;28;20379;-67
2024/01/17 01:57:51;;;;;;;;;;;;;;;;;;5071530;28;20458;-67
2024/01/17 02:00:18;;;;;;;;;;;;;;;;;;5069232;28;19924;-67
2024/01/17 02:02:45;;;;;;;;;;;;;;;;;;5067295;28;19924;-67
2024/01/17 02:05:12;;;;;;;;;;;;;;;;;;5062502;28;19977;-67
2024/01/17 02:07:40;;;;;;;;;;;;;;;;;;5072120;28;19976;-67
2024/01/17 02:10:07;;;;;;;;;;;;;;;;;;5056342;28;19948;-67
2024/01/17 02:12:34;;;;;;;;;;;;;;;;;;5073686;28;19977;-67
2024/01/17 02:15:01;;;;;;;;;;;;;;;;;;5067667;28;20372;-67
2024/01/17 02:17:28;;;;;;;;;;;;;;;;;;5063054;28;19972;-67
2024/01/17 02:19:55;;;;;;;;;;;;;;;;;;5064122;28;19956;-67
2024/01/17 02:22:22;;;;;;;;;;;;;;;;;;5062262;28;19925;-67
2024/01/17 02:24:49;;;;;;;;;;;;;;;;;;5070818;28;19986;-67
2024/01/17 02:27:16;;;;;;;;;;;;;;;;;;5063855;28;20768;-68
2024/01/17 02:29:45;;;;;;;;;;;;;;;;;;5068924;28;19978;-68
2024/01/17 02:32:12;;;;;;;;;;;;;;;;;;5064899;28;20332;-68
2024/01/17 02:34:39;;;;;;;;;;;;;;;;;;5066408;28;20387;-68
2024/01/17 02:37:06;;;;;;;;;;;;;;;;;;5073576;28;19986;-67
2024/01/17 02:39:33;;;;;;;;;;;;;;;;;;5070320;28;19925;-67
2024/01/17 02:42:00;;;;;;;;;;;;;;;;;;5058058;28;19978;-67
2024/01/17 02:44:27;;;;;;;;;;;;;;;;;;5065716;28;20388;-67
2024/01/17 02:46:54;;;;;;;;;;;;;;;;;;5072429;28;19928;-67
2024/01/17 02:49:21;;;;;;;;;;;;;;;;;;5069534;28;19924;-67
2024/01/17 02:51:48;;;;;;;;;;;;;;;;;;5065890;28;19929;-67
2024/01/17 02:54:15;;;;;;;;;;;;;;;;;;5059053;28;19925;-67
2024/01/17 02:56:42;;;;;;;;;;;;;;;;;;5071514;28;19959;-67
2024/01/17 02:59:09;;;;;;;;;;;;;;;;;;5068199;28;19924;-68
2024/01/17 03:01:36;;;;;;;;;;;;;;;;;;5071098;28;19966;-67
2024/01/17 03:04:03;;;;;;;;;;;;;;;;;;5070197;28;19925;-68
2024/01/17 03:06:30;;;;;;;;;;;;;;;;;;5062501;28;19928;-68
2024/01/17 03:08:57;;;;;;;;;;;;;;;;;;5073221;28;19924;-68
2024/01/17 03:11:24;;;;;;;;;;;;;;;;;;5072358;28;19944;-68
2024/01/17 03:13:51;;;;;;;;;;;;;;;;;;5068363;28;20021;-68
2024/01/17 03:16:19;;;;;;;;;;;;;;;;;;5070619;28;20272;-69
2024/01/17 03:18:46;;;;;;;;;;;;;;;;;;5071028;28;19951;-68
2024/01/17 03:21:13;;;;;;;;;;;;;;;;;;5059842;28;19925;-68
2024/01/17 03:23:41;;;;;;;;;;;;;;;;;;5064714;28;19928;-68
2024/01/17 03:26:08;;;;;;;;;;;;;;;;;;5072753;28;19925;-68
2024/01/17 03:28:35;;;;;;;;;;;;;;;;;;5073047;28;19932;-68
2024/01/17 03:31:02;;;;;;;;;;;;;;;;;;5072896;28;19925;-68
2024/01/17 03:33:29;;;;;;;;;;;;;;;;;;5071991;28;20357;-68
2024/01/17 03:35:56;;;;;;;;;;;;;;;;;;5066236;28;19925;-68
2024/01/17 03:38:25;;;;;;;;;;;;;;;;;;5066392;28;19926;-68
2024/01/17 03:40:55;;;;;;;;;;;;;;;;;;5059416;28;19924;-68
2024/01/17 03:43:22;;;;;;;;;;;;;;;;;;5072036;28;20413;-68
2024/01/17 03:45:51;;;;;;;;;;;;;;;;;;5071537;28;20296;-68
2024/01/17 03:48:18;;;;;;;;;;;;;;;;;;5063351;28;20291;-67
2024/01/17 03:50:45;;;;;;;;;;;;;;;;;;5062091;28;20291;-68
2024/01/17 03:53:12;;;;;;;;;;;;;;;;;;5071790;28;20415;-67
2024/01/17 03:55:39;;;;;;;;;;;;;;;;;;5061352;28;20061;-68
2024/01/17 03:58:06;;;;;;;;;;;;;;;;;;5061453;28;19971;-67
2024/01/17 04:00:33;;;;;;;;;;;;;;;;;;5071358;28;19924;-68
2024/01/17 04:03:00;;;;;;;;;;;;;;;;;;5070664;28;19968;-68
2024/01/17 04:05:27;;;;;;;;;;;;;;;;;;5064197;28;19929;-67
2024/01/17 04:07:54;;;;;;;;;;;;;;;;;;5071738;28;19928;-67
2024/01/17 04:10:21;;;;;;;;;;;;;;;;;;5072348;28;19924;-67
2024/01/17 04:12:48;;;;;;;;;;;;;;;;;;5072251;28;19978;-67
2024/01/17 04:15:17;;;;;;;;;;;;;;;;;;5062891;28;20457;-67
2024/01/17 04:17:44;;;;;;;;;;;;;;;;;;5053734;28;20035;-67
2024/01/17 04:20:11;;;;;;;;;;;;;;;;;;5065774;28;20429;-67
2024/01/17 04:22:38;;;;;;;;;;;;;;;;;;5059132;28;19925;-67
2024/01/17 04:25:05;;;;;;;;;;;;;;;;;;5058315;28;19925;-66
2024/01/17 04:27:32;;;;;;;;;;;;;;;;;;5065024;28;19925;-67
2024/01/17 04:29:59;;;;;;;;;;;;;;;;;;5066216;28;19994;-67
2024/01/17 04:32:26;;;;;;;;;;;;;;;;;;5057470;28;19959;-67
2024/01/17 04:34:53;;;;;;;;;;;;;;;;;;5065601;28;20414;-67
2024/01/17 04:37:21;;;;;;;;;;;;;;;;;;5070276;28;20314;-67
2024/01/17 04:39:48;;;;;;;;;;;;;;;;;;5067049;28;19924;-67
2024/01/17 04:42:15;;;;;;;;;;;;;;;;;;5062244;28;19929;-66
2024/01/17 04:44:43;;;;;;;;;;;;;;;;;;5070604;28;19977;-67
2024/01/17 04:47:10;;;;;;;;;;;;;;;;;;5056955;28;19925;-67
2024/01/17 04:49:37;;;;;;;;;;;;;;;;;;5058437;28;20378;-67
2024/01/17 04:52:04;;;;;;;;;;;;;;;;;;5071659;28;20349;-67
2024/01/17 04:54:31;;;;;;;;;;;;;;;;;;5071560;28;20006;-67
2024/01/17 04:56:59;;;;;;;;;;;;;;;;;;5067258;28;20007;-67
2024/01/17 04:59:26;;;;;;;;;;;;;;;;;;5056249;28;19925;-67
2024/01/17 05:01:53;;;;;;;;;;;;;;;;;;5064380;28;19931;-66
2024/01/17 05:04:20;;;;;;;;;;;;;;;;;;5064466;28;20392;-67
2024/01/17 05:06:47;;;;;;;;;;;;;;;;;;5062049;28;19969;-67
2024/01/17 05:09:17;;;;;;;;;;;;;;;;;;5068040;28;20015;-66
2024/01/17 05:11:44;;;;;;;;;;;;;;;;;;5074275;28;19928;-66
2024/01/17 05:14:11;;;;;;;;;;;;;;;;;;5063131;28;19990;-67
2024/01/17 05:16:38;;;;;;;;;;;;;;;;;;5073926;28;20367;-67
2024/01/17 05:19:05;;;;;;;;;;;;;;;;;;5070632;28;19935;-67
2024/01/17 05:21:32;;;;;;;;;;;;;;;;;;5059977;28;19933;-67
2024/01/17 05:23:59;;;;;;;;;;;;;;;;;;5055783;28;19925;-67
2024/01/17 05:26:26;;;;;;;;;;;;;;;;;;5074406;28;19924;-67
2024/01/17 05:28:53;;;;;;;;;;;;;;;;;;5072900;28;19963;-67
2024/01/17 05:31:21;;;;;;;;;;;;;;;;;;5074286;28;19925;-67
2024/01/17 05:33:48;;;;;;;;;;;;;;;;;;5074617;28;19928;-67
2024/01/17 05:36:15;;;;;;;;;;;;;;;;;;5070169;28;19924;-67
2024/01/17 05:38:42;;;;;;;;;;;;;;;;;;5067410;28;19929;-66
2024/01/17 05:41:09;;;;;;;;;;;;;;;;;;5067817;28;19958;-67
2024/01/17 05:43:36;;;;;;;;;;;;;;;;;;5071833;28;19925;-67
2024/01/17 05:46:03;;;;;;;;;;;;;;;;;;5058111;28;19925;-67
2024/01/17 05:48:30;;;;;;;;;;;;;;;;;;5054662;28;19931;-67
2024/01/17 05:50:57;;;;;;;;;;;;;;;;;;5064065;28;19929;-68
2024/01/17 05:53:24;;;;;;;;;;;;;;;;;;5057629;28;19970;-67
2024/01/17 05:55:52;;;;;;;;;;;;;;;;;;5057423;28;19924;-66
2024/01/17 05:58:20;;;;;;;;;;;;;;;;;;5074265;28;20015;-66
2024/01/17 06:00:47;;;;;;;;;;;;;;;;;;5074066;28;19935;-66
2024/01/17 06:03:15;;;;;;;;;;;;;;;;;;5073534;28;19924;-66
2024/01/17 06:05:42;;;;;;;;;;;;;;;;;;5065019;28;19925;-64
2024/01/17 06:08:09;;;;;;;;;;;;;;;;;;5067615;28;19925;-65
2024/01/17 06:10:37;;;;;;;;;;;;;;;;;;5072634;28;20407;-65
2024/01/17 06:13:05;;;;;;;;;;;;;;;;;;5070971;28;19925;-65
2024/01/17 06:15:32;;;;;;;;;;;;;;;;;;5073605;28;20320;-65
2024/01/17 06:18:00;;;;;;;;;;;;;;;;;;5073237;28;19925;-65
2024/01/17 06:20:27;;;;;;;;;;;;;;;;;;5064238;28;19924;-66
2024/01/17 06:22:54;;;;;;;;;;;;;;;;;;5066071;28;20385;-65
2024/01/17 06:25:21;;;;;;;;;;;;;;;;;;5069692;28;20333;-64
2024/01/17 06:27:48;;;;;;;;;;;;;;;;;;5065257;28;19965;-65
2024/01/17 06:30:15;;;;;;;;;;;;;;;;;;5066437;28;19925;-64
2024/01/17 06:32:42;;;;;;;;;;;;;;;;;;5066686;28;19925;-65
2024/01/17 06:35:10;;;;;;;;;;;;;;;;;;5053539;28;19929;-65
2024/01/17 06:37:37;;;;;;;;;;;;;;;;;;5061320;28;19931;-66
2024/01/17 06:40:04;;;;;;;;;;;;;;;;;;5058276;28;19924;-65
2024/01/17 06:42:31;;;;;;;;;;;;;;;;;;5073711;28;19925;-65
2024/01/17 06:44:58;;;;;;;;;;;;;;;;;;5071222;28;19985;-66
2024/01/17 06:47:25;;;;;;;;;;;;;;;;;;5071550;28;19928;-65
2024/01/17 06:49:52;;;;;;;;;;;;;;;;;;5072386;28;19985;-65
2024/01/17 06:52:20;;;;;;;;;;;;;;;;;;5061326;28;20284;-65
2024/01/17 06:54:47;;;;;;;;;;;;;;;;;;5057530;28;19964;-65
2024/01/17 06:57:14;;;;;;;;;;;;;;;;;;5064817;28;19959;-65
2024/01/17 06:59:42;;;;;;;;;;;;;;;;;;5072209;28;19963;-65
2024/01/17 07:02:10;;;;;;;;;;;;;;;;;;5061839;28;19952;-65
2024/01/17 07:04:40;;;;;;;;;;;;;;;;;;5058465;28;20393;-65
2024/01/17 07:07:07;;;;;;;;;;;;;;;;;;5059965;28;19924;-64
2024/01/17 07:09:34;;;;;;;;;;;;;;;;;;5067031;28;20387;-64
2024/01/17 07:12:02;;;;;;;;;;;;;;;;;;5069064;28;20315;-65
2024/01/17 07:14:29;;;;;;;;;;;;;;;;;;5072319;28;19971;-64
2024/01/17 07:16:57;;;;;;;;;;;;;;;;;;5072792;28;20073;-65
2024/01/17 07:19:24;;;;;;;;;;;;;;;;;;5061022;28;19947;-65
2024/01/17 07:21:51;;;;;;;;;;;;;;;;;;5055566;28;19924;-64
2024/01/17 07:24:18;;;;;;;;;;;;;;;;;;5069980;28;20330;-64
2024/01/17 07:26:45;;;;;;;;;;;;;;;;;;5054635;28;19972;-64
2024/01/17 07:29:12;;;;;;;;;;;;;;;;;;5052676;28;19925;-65
2024/01/17 07:31:39;;;;;;;;;;;;;;;;;;5063700;28;19968;-66
2024/01/17 07:34:07;;;;;;;;;;;;;;;;;;5067438;28;19929;-66
2024/01/17 07:36:34;;;;;;;;;;;;;;;;;;5078837;28;20306;-67
2024/01/17 07:39:02;;;;;;;;;;;;;;;;;;5068601;28;20364;-66
2024/01/17 07:41:29;;;;;;;;;;;;;;;;;;5059957;28;20539;-66
2024/01/17 07:43:56;;;;;;;;;;;;;;;;;;5055659;28;19929;-66
2024/01/17 07:46:23;;;;;;;;;;;;;;;;;;5042916;28;19978;-67
2024/01/17 07:48:50;;;;;;;;;;;;;;;;;;5050093;28;20043;-67
2024/01/17 07:51:17;;;;;;;;;;;;;;;;;;5056586;28;20450;-66
2024/01/17 07:53:45;;;;;;;;;;;;;;;;;;5062115;28;20021;-66
2024/01/17 07:56:12;;;;;;;;;;;;;;;;;;5057657;28;19925;-66
2024/01/17 07:58:39;;;;;;;;;;;;;;;;;;5049295;28;20014;-66
2024/01/17 08:01:08;;;;;;;;;;;;;;;;;;5051832;28;20412;-66
2024/01/17 08:03:35;;;;;;;;;;;;;;;;;;5049551;28;20449;-67
2024/01/17 08:06:02;;;;;;;;;;;;;;;;;;5056858;28;19994;-67
2024/01/17 08:08:29;;;;;;;;;;;;;;;;;;5047495;28;20023;-67
2024/01/17 08:10:56;;;;;;;;;;;;;;;;;;5049844;28;20442;-66
2024/01/17 08:13:23;;;;;;;;;;;;;;;;;;5048096;28;19925;-66
2024/01/17 08:15:50;;;;;;;;;;;;;;;;;;5047475;28;19925;-66
2024/01/17 08:18:17;;;;;;;;;;;;;;;;;;5056386;28;19974;-66
2024/01/17 08:20:44;;;;;;;;;;;;;;;;;;5068554;28;19964;-66
2024/01/17 08:23:11;;;;;;;;;;;;;;;;;;5071009;28;19925;-66
2024/01/17 08:25:38;;;;;;;;;;;;;;;;;;5063411;28;20295;-67
2024/01/17 08:28:05;;;;;;;;;;;;;;;;;;5061824;28;19924;-66
2024/01/17 08:30:33;;;;;;;;;;;;;;;;;;5068349;28;19936;-66
2024/01/17 08:33:00;;;;;;;;;;;;;;;;;;5060225;28;19925;-66
2024/01/17 08:35:27;;;;;;;;;;;;;;;;;;5058821;28;20437;-66
2024/01/17 08:37:54;;;;;;;;;;;;;;;;;;5060185;28;19924;-66
2024/01/17 08:40:21;;;;;;;;;;;;;;;;;;5057610;28;19924;-66
2024/01/17 08:42:48;;;;;;;;;;;;;;;;;;5068313;28;19924;-65
2024/01/17 08:45:15;;;;;;;;;;;;;;;;;;5068193;28;20004;-66
2024/01/17 08:47:43;;;;;;;;;;;;;;;;;;5068817;28;19924;-66
2024/01/17 08:50:10;;;;;;;;;;;;;;;;;;5067853;28;19924;-64
2024/01/17 08:52:38;;;;;;;;;;;;;;;;;;5064861;28;19928;-64
2024/01/17 08:55:08;;;;;;;;;;;;;;;;;;5062982;28;19964;-64
2024/01/17 08:57:36;;;;;;;;;;;;;;;;;;5074460;28;19994;-64
2024/01/17 09:00:05;;;;;;;;;;;;;;;;;;5065737;28;19947;-65
2024/01/17 09:02:32;;;;;;;;;;;;;;;;;;5053139;28;19943;-65
2024/01/17 09:05:00;;;;;;;;;;;;;;;;;;5052942;28;19924;-66
2024/01/17 09:07:27;;;;;;;;;;;;;;;;;;5050059;28;19933;-67
2024/01/17 09:09:54;;;;;;;;;;;;;;;;;;5054117;28;19989;-66
2024/01/17 09:12:22;;;;;;;;;;;;;;;;;;5068460;28;19971;-66
2024/01/17 09:14:50;;;;;;;;;;;;;;;;;;5057675;28;19925;-67
2024/01/17 09:17:17;;;;;;;;;;;;;;;;;;5055336;28;19925;-66
2024/01/17 09:19:44;;;;;;;;;;;;;;;;;;5053694;28;19960;-66
2024/01/17 09:22:11;;;;;;;;;;;;;;;;;;5059460;28;20476;-67
2024/01/17 09:24:40;;;;;;;;;;;;;;;;;;5057541;28;19924;-67
2024/01/17 09:27:07;;;;;;;;;;;;;;;;;;5065120;28;20362;-66
2024/01/17 09:29:35;;;;;;;;;;;;;;;;;;5071011;28;19924;-67
2024/01/17 09:32:02;;;;;;;;;;;;;;;;;;5071160;28;20002;-66
2024/01/17 09:34:29;;;;;;;;;;;;;;;;;;5072236;28;19931;-65
2024/01/17 09:36:56;;;;;;;;;;;;;;;;;;5079793;28;19970;-65
2024/01/17 09:39:23;;;;;;;;;;;;;;;;;;5068230;28;19929;-64
2024/01/17 09:41:50;;;;;;;;;;;;;;;;;;5056404;28;19979;-64
2024/01/17 09:44:17;;;;;;;;;;;;;;;;;;5055185;28;20360;-64
2024/01/17 09:46:44;;;;;;;;;;;;;;;;;;5063452;28;19924;-64
2024/01/17 09:49:11;;;;;;;;;;;;;;;;;;5066276;28;19925;-65
2024/01/17 09:51:38;;;;;;;;;;;;;;;;;;5063327;28;19970;-65
2024/01/17 09:54:05;;;;;;;;;;;;;;;;;;5060975;28;20449;-66
2024/01/17 09:56:33;;;;;;;;;;;;;;;;;;5073099;28;19978;-65
2024/01/17 09:59:00;;;;;;;;;;;;;;;;;;5057208;28;19932;-65
2024/01/17 10:01:27;;;;;;;;;;;;;;;;;;5064121;28;20019;-65
2024/01/17 10:03:54;;;;;;;;;;;;;;;;;;5055690;28;19925;-65
2024/01/17 10:06:21;;;;;;;;;;;;;;;;;;5067287;28;20347;-65
2024/01/17 10:08:48;;;;;;;;;;;;;;;;;;5069584;28;19925;-65
2024/01/17 10:11:16;;;;;;;;;;;;;;;;;;5070053;28;19925;-65
2024/01/17 10:13:43;;;;;;;;;;;;;;;;;;5060239;28;19931;-65
2024/01/17 10:16:11;;;;;;;;;;;;;;;;;;5062504;28;19994;-65
2024/01/17 10:18:38;;;;;;;;;;;;;;;;;;5053595;28;19931;-65
2024/01/17 10:21:05;;;;;;;;;;;;;;;;;;5051493;28;20363;-64
2024/01/17 10:23:32;;;;;;;;;;;;;;;;;;5061339;28;19925;-65
2024/01/17 10:25:59;;;;;;;;;;;;;;;;;;5059917;28;19972;-65
2024/01/17 10:28:26;;;;;;;;;;;;;;;;;;5056317;28;19925;-65
2024/01/17 10:30:53;;;;;;;;;;;;;;;;;;5064597;28;19925;-66
2024/01/17 10:33:21;;;;;;;;;;;;;;;;;;5062911;28;19964;-66
2024/01/17 10:35:49;;;;;;;;;;;;;;;;;;5055323;28;19924;-66
2024/01/17 10:38:16;;;;;;;;;;;;;;;;;;5075918;28;19930;-66
2024/01/17 10:40:44;;;;;;;;;;;;;;;;;;5069954;28;19974;-65
2024/01/17 10:43:13;;;;;;;;;;;;;;;;;;5072639;28;20007;-65
2024/01/17 10:45:41;;;;;;;;;;;;;;;;;;5071857;28;19928;-65
2024/01/17 10:48:08;;;;;;;;;;;;;;;;;;5073224;28;20015;-65
2024/01/17 10:50:35;;;;;;;;;;;;;;;;;;5065476;28;20010;-66
2024/01/17 10:53:04;;;;;;;;;;;;;;;;;;5069186;28;20001;-65
2024/01/17 10:55:30;;;;;;;;;;;;;;;;;;5056511;28;19925;-66
2024/01/17 10:57:57;;;;;;;;;;;;;;;;;;5063264;28;20023;-65
2024/01/17 11:00:29;;;;;;;;;;;;;;;;;;5050287;28;19928;-65
2024/01/17 11:02:56;;;;;;;;;;;;;;;;;;5058191;28;19993;-65
2024/01/17 11:05:23;;;;;;;;;;;;;;;;;;5066377;28;20028;-65
2024/01/17 11:07:50;;;;;;;;;;;;;;;;;;5054324;28;19952;-65
2024/01/17 11:10:17;;;;;;;;;;;;;;;;;;5060407;28;19925;-66
2024/01/17 11:12:45;;;;;;;;;;;;;;;;;;5063254;28;20157;-64
2024/01/17 11:15:12;;;;;;;;;;;;;;;;;;5060074;28;20303;-64
2024/01/17 11:17:40;;;;;;;;;;;;;;;;;;5059716;28;20060;-63
2024/01/17 11:20:08;;;;;;;;;;;;;;;;;;5068261;28;19924;-65
2024/01/17 11:22:35;;;;;;;;;;;;;;;;;;5058429;28;20317;-64
2024/01/17 11:25:02;;;;;;;;;;;;;;;;;;5068643;28;19993;-64
2024/01/17 11:27:29;;;;;;;;;;;;;;;;;;5060601;28;19928;-66
2024/01/17 11:29:56;;;;;;;;;;;;;;;;;;5060552;28;19924;-65
2024/01/17 11:32:23;;;;;;;;;;;;;;;;;;5061616;28;19936;-64
2024/01/17 11:34:50;;;;;;;;;;;;;;;;;;5065150;28;19924;-64
2024/01/17 11:37:18;;;;;;;;;;;;;;;;;;5062708;28;20016;-64
2024/01/17 11:39:45;;;;;;;;;;;;;;;;;;5060458;28;20394;-62
2024/01/17 11:42:12;;;;;;;;;;;;;;;;;;5063082;28;20007;-64
2024/01/17 11:44:39;;;;;;;;;;;;;;;;;;5069589;28;19932;-64
2024/01/17 11:47:06;;;;;;;;;;;;;;;;;;5062809;28;19925;-64
2024/01/17 11:49:33;;;;;;;;;;;;;;;;;;5064113;28;20284;-64
2024/01/17 11:52:00;;;;;;;;;;;;;;;;;;5067933;28;19925;-64
2024/01/17 11:54:27;;;;;;;;;;;;;;;;;;5065745;28;19948;-65
2024/01/17 11:56:54;;;;;;;;;;;;;;;;;;5055646;28;20657;-64
2024/01/17 11:59:21;;;;;;;;;;;;;;;;;;5060147;28;19932;-64
2024/01/17 12:01:51;;;;;;;;;;;;;;;;;;5056468;28;19940;-65
2024/01/17 12:04:18;;;;;;;;;;;;;;;;;;5061619;28;20023;-65
2024/01/17 12:06:45;;;;;;;;;;;;;;;;;;5056410;28;20023;-65
2024/01/17 12:09:18;;;;;;;;;;;;;;;;;;5053541;28;20284;-64
2024/01/17 12:11:45;;;;;;;;;;;;;;;;;;5064344;28;19978;-64
2024/01/17 12:14:12;;;;;;;;;;;;;;;;;;5060645;28;19928;-65
2024/01/17 12:16:39;;;;;;;;;;;;;;;;;;5063194;28;20303;-63
2024/01/17 12:19:06;;;;;;;;;;;;;;;;;;5067155;28;20599;-65
2024/01/17 12:21:33;;;;;;;;;;;;;;;;;;5053663;28;19935;-64
2024/01/17 12:24:00;;;;;;;;;;;;;;;;;;5054092;28;20380;-63
2024/01/17 12:26:27;;;;;;;;;;;;;;;;;;5061709;28;19932;-63
2024/01/17 12:28:54;;;;;;;;;;;;;;;;;;5052282;28;20296;-64
2024/01/17 12:31:22;;;;;;;;;;;;;;;;;;5059165;28;19982;-64
2024/01/17 12:33:49;;;;;;;;;;;;;;;;;;5062944;28;19932;-64
2024/01/17 12:36:16;;;;;;;;;;;;;;;;;;5063707;28;19996;-64
2024/01/17 12:38:43;;;;;;;;;;;;;;;;;;5063970;28;19929;-64
2024/01/17 12:41:10;;;;;;;;;;;;;;;;;;5065804;28;19925;-65
2024/01/17 12:43:37;;;;;;;;;;;;;;;;;;5060768;28;19951;-65
2024/01/17 12:46:04;;;;;;;;;;;;;;;;;;5067446;28;20280;-65
2024/01/17 12:48:31;;;;;;;;;;;;;;;;;;5056376;28;19925;-65
2024/01/17 12:50:58;;;;;;;;;;;;;;;;;;5064649;28;20307;-64
2024/01/17 12:53:27;;;;;;;;;;;;;;;;;;5062099;28;19951;-63
2024/01/17 12:55:54;;;;;;;;;;;;;;;;;;5057367;28;19924;-65
2024/01/17 12:58:21;;;;;;;;;;;;;;;;;;5053789;28;19925;-64
2024/01/17 13:00:48;;;;;;;;;;;;;;;;;;5065264;28;19928;-65
2024/01/17 13:03:16;;;;;;;;;;;;;;;;;;5055551;28;19968;-63
2024/01/17 13:05:43;;;;;;;;;;;;;;;;;;5058468;28;19980;-64
2024/01/17 13:08:11;;;;;;;;;;;;;;;;;;5055654;28;20450;-64
2024/01/17 13:10:38;;;;;;;;;;;;;;;;;;5071216;28;19924;-64
2024/01/17 13:13:08;;;;;;;;;;;;;;;;;;5061368;28;19971;-65
2024/01/17 13:15:35;;;;;;;;;;;;;;;;;;5061348;28;20294;-65
2024/01/17 13:18:02;;;;;;;;;;;;;;;;;;5060114;28;20008;-65
2024/01/17 13:20:30;;;;;;;;;;;;;;;;;;5058848;28;19924;-65
2024/01/17 13:22:57;;;;;;;;;;;;;;;;;;5058543;28;19925;-67
2024/01/17 13:25:24;;;;;;;;;;;;;;;;;;5065869;28;19925;-67
2024/01/17 13:27:51;;;;;;;;;;;;;;;;;;5065680;28;19929;-68
2024/01/17 13:30:18;;;;;;;;;;;;;;;;;;5058392;28;19925;-66
2024/01/17 13:32:46;;;;;;;;;;;;;;;;;;5065254;28;19924;-66
2024/01/17 13:35:13;;;;;;;;;;;;;;;;;;5064380;28;19932;-66
2024/01/17 13:37:41;;;;;;;;;;;;;;;;;;5069061;28;19925;-66
2024/01/17 13:40:08;;;;;;;;;;;;;;;;;;5063715;28;19954;-66
2024/01/17 13:42:36;;;;;;;;;;;;;;;;;;5062843;28;19925;-66
2024/01/17 13:45:03;;;;;;;;;;;;;;;;;;5068147;28;19970;-66
2024/01/17 13:47:30;;;;;;;;;;;;;;;;;;5062888;28;19924;-66
2024/01/17 13:50:03;;;;;;;;;;;;;;;;;;5064199;28;20425;-65
2024/01/17 13:52:36;;;;;;;;;;;;;;;;;;5062037;28;19939;-66
2024/01/17 13:55:04;;;;;;;;;;;;;;;;;;5060927;28;20011;-65
2024/01/17 13:57:31;;;;;;;;;;;;;;;;;;5062582;28;19960;-66
2024/01/17 13:59:58;;;;;;;;;;;;;;;;;;5065088;28;20012;-66
2024/01/17 14:02:26;;;;;;;;;;;;;;;;;;5059304;28;19990;-66
2024/01/17 14:04:53;;;;;;;;;;;;;;;;;;5063389;28;20021;-66
2024/01/17 14:07:20;;;;;;;;;;;;;;;;;;5059687;28;19987;-66
2024/01/17 14:09:47;;;;;;;;;;;;;;;;;;5065031;28;19932;-65
2024/01/17 14:12:14;;;;;;;;;;;;;;;;;;5057462;28;20445;-66
2024/01/17 14:14:42;;;;;;;;;;;;;;;;;;5063370;28;19964;-66
2024/01/17 14:17:09;;;;;;;;;;;;;;;;;;5067188;28;20011;-66
2024/01/17 14:19:36;;;;;;;;;;;;;;;;;;5066535;28;20451;-66
2024/01/17 14:22:03;;;;;;;;;;;;;;;;;;5063549;28;19928;-65
2024/01/17 14:24:30;;;;;;;;;;;;;;;;;;5061864;28;20023;-66
2024/01/17 14:26:58;;;;;;;;;;;;;;;;;;5060736;28;20001;-65
2024/01/17 14:29:25;;;;;;;;;;;;;;;;;;5063959;28;19925;-64
2024/01/17 14:31:52;;;;;;;;;;;;;;;;;;5060496;28;20015;-64
2024/01/17 14:34:21;;;;;;;;;;;;;;;;;;5055463;28;20015;-64
2024/01/17 14:36:48;;;;;;;;;;;;;;;;;;5060118;28;20368;-65
2024/01/17 14:39:20;;;;;;;;;;;;;;;;;;5059202;28;19929;-64
2024/01/17 14:41:47;;;;;;;;;;;;;;;;;;5063420;28;19924;-64
2024/01/17 14:44:14;;;;;;;;;;;;;;;;;;5064604;28;20421;-64
2024/01/17 14:46:43;;;;;;;;;;;;;;;;;;5058679;28;19964;-65
2024/01/17 14:49:12;;;;;;;;;;;;;;;;;;5057895;28;19935;-64
2024/01/17 14:51:39;;;;;;;;;;;;;;;;;;5062924;28;19931;-64
2024/01/17 14:54:06;;;;;;;;;;;;;;;;;;5067541;28;19990;-63
2024/01/17 14:56:33;;;;;;;;;;;;;;;;;;5061488;28;20287;-64
2024/01/17 14:59:03;;;;;;;;;;;;;;;;;;5056724;28;19955;-64
2024/01/17 15:01:30;;;;;;;;;;;;;;;;;;5062215;28;19924;-64
2024/01/17 15:03:57;;;;;;;;;;;;;;;;;;5062263;28;20013;-64
2024/01/17 15:06:24;;;;;;;;;;;;;;;;;;5067897;28;20396;-64
2024/01/17 15:08:51;;;;;;;;;;;;;;;;;;5061691;28;20347;-65
2024/01/17 15:11:18;;;;;;;;;;;;;;;;;;5063429;28;20023;-65
2024/01/17 15:13:45;;;;;;;;;;;;;;;;;;5067586;28;19994;-65
2024/01/17 15:16:13;;;;;;;;;;;;;;;;;;5052025;28;19987;-65
2024/01/17 15:18:40;;;;;;;;;;;;;;;;;;5058290;28;20370;-66
2024/01/17 15:21:07;;;;;;;;;;;;;;;;;;5054992;28;19970;-65
2024/01/17 15:23:34;;;;;;;;;;;;;;;;;;5065100;28;19976;-64
2024/01/17 15:26:01;;;;;;;;;;;;;;;;;;5063089;28;19928;-65
2024/01/17 15:28:28;;;;;;;;;;;;;;;;;;5072337;28;19931;-65
2024/01/17 15:30:56;;;;;;;;;;;;;;;;;;5063972;28;20330;-65
2024/01/17 15:33:23;;;;;;;;;;;;;;;;;;5062396;28;20296;-64
2024/01/17 15:35:50;;;;;;;;;;;;;;;;;;5067542;28;19947;-66
2024/01/17 15:38:17;;;;;;;;;;;;;;;;;;5061525;28;20380;-65
2024/01/17 15:40:55;;;;;;;;;;;;;;;;;;5066037;28;19936;-66
2024/01/17 15:43:22;;;;;;;;;;;;;;;;;;5059807;28;20031;-65
2024/01/17 15:45:49;;;;;;;;;;;;;;;;;;5062587;28;20692;-65
2024/01/17 15:48:16;;;;;;;;;;;;;;;;;;5065319;28;20036;-65
2024/01/17 15:50:44;;;;;;;;;;;;;;;;;;5056468;28;19924;-64
2024/01/17 15:53:12;;;;;;;;;;;;;;;;;;5056018;28;20516;-64
2024/01/17 15:55:39;;;;;;;;;;;;;;;;;;5060224;28;19951;-65
2024/01/17 15:58:06;;;;;;;;;;;;;;;;;;5059510;28;19932;-65
2024/01/17 16:00:33;;;;;;;;;;;;;;;;;;5062316;28;20012;-67
2024/01/17 16:03:00;;;;;;;;;;;;;;;;;;5057292;28;19994;-67
2024/01/17 16:05:27;;;;;;;;;;;;;;;;;;5063434;28;20375;-67
2024/01/17 16:07:54;;;;;;;;;;;;;;;;;;5062944;28;19931;-69
2024/01/17 16:10:21;;;;;;;;;;;;;;;;;;5060302;28;19959;-67
2024/01/17 16:12:49;;;;;;;;;;;;;;;;;;5065171;28;20257;-68
2024/01/17 16:15:16;;;;;;;;;;;;;;;;;;5056122;28;19925;-66
2024/01/17 16:17:43;;;;;;;;;;;;;;;;;;5062481;28;19991;-66
2024/01/17 16:20:10;;;;;;;;;;;;;;;;;;5059829;28;19943;-66
2024/01/17 16:22:37;;;;;;;;;;;;;;;;;;5059736;28;20391;-66
2024/01/17 16:25:05;;;;;;;;;;;;;;;;;;5056824;28;19933;-66
2024/01/17 16:27:32;;;;;;;;;;;;;;;;;;5054324;28;20260;-66
2024/01/17 16:30:00;;;;;;;;;;;;;;;;;;5065016;28;19924;-65
2024/01/17 16:32:27;;;;;;;;;;;;;;;;;;5062722;28;19925;-65
2024/01/17 16:34:55;;;;;;;;;;;;;;;;;;5060216;28;19979;-65
2024/01/17 16:37:22;;;;;;;;;;;;;;;;;;5062160;28;20291;-65
2024/01/17 16:39:50;;;;;;;;;;;;;;;;;;5063970;28;19967;-66
2024/01/17 16:42:18;;;;;;;;;;;;;;;;;;5061393;28;19929;-63
2024/01/17 16:44:47;;;;;;;;;;;;;;;;;;5063241;28;19978;-65